Time;durP1;ratioP1;P1;durP2;ratioP2;P2;SDS_P1;SDS_P2;PMS_P1;PMS_P2;Temp;Humidity;BMP_temperature;BMP_pressure;BME280_temperature;BME280_humidity;BME280_pressure;Samples;Min_cycle;Max_cycle;Signal;HPM_P1;HPM_P2
2023/02/07 00:06:13;;;;;;;11.80;6.50;;;;;;;0.49;77.15;102034.85;107442;1288;547738;-60
2023/02/07 00:08:39;;;;;;;11.40;6.90;;;;;;;3.63;56.63;102020.96;107603;1292;22005;-61
2023/02/07 00:11:06;;;;;;;10.50;6.20;;;;;;;4.04;53.82;102012.25;107745;1293;21998;-64
2023/02/07 01:11:45;;;;;;;10.70;6.10;;;;;;;-0.12;84.71;102016.41;107344;1288;547846;-65
2023/02/07 01:14:11;;;;;;;10.80;6.10;;;;;;;3.09;61.86;102004.77;107364;1291;22011;-62
2023/02/07 01:16:37;;;;;;;9.20;5.40;;;;;;;3.70;57.16;102000.75;107486;1295;21991;-64
2023/02/07 01:19:05;;;;;;;8.70;5.50;;;;;;;4.05;55.09;101997.69;107482;1295;21997;-65
2023/02/07 01:21:31;;;;;;;10.70;6.70;;;;;;;4.22;53.71;101996.43;107866;1292;21993;-65
2023/02/07 01:23:57;;;;;;;9.60;5.50;;;;;;;4.12;53.16;101998.46;107654;1290;193236;-65
2023/02/07 01:26:24;;;;;;;9.40;5.80;;;;;;;4.06;53.19;101999.27;107865;1290;21990;-61
2023/02/07 01:44:01;;;;;;;11.20;5.70;;;;;;;-0.12;82.48;102024.85;107344;1288;547836;-61
2023/02/07 01:46:28;;;;;;;8.80;5.60;;;;;;;3.16;59.39;102009.22;107471;1293;22069;-65
2023/02/07 01:48:55;;;;;;;9.30;5.20;;;;;;;3.64;55.51;102006.08;107479;1295;22036;-64
2023/02/07 01:51:21;;;;;;;11.30;5.40;;;;;;;3.71;54.16;102000.11;107484;1295;22011;-62
2023/02/07 01:53:47;;;;;;;8.70;5.20;;;;;;;3.88;53.39;102003.40;107014;1294;1002513;-62
2023/02/07 02:18:13;;;;;;;9.20;5.20;;;;;;;-0.22;83.15;102023.48;107310;1288;547834;-65
2023/02/07 02:20:52;;;;;;;9.50;5.00;;;;;;;3.15;58.89;102004.68;107789;1291;21994;-65
2023/02/07 02:23:36;;;;;;;9.10;4.70;;;;;;;3.72;55.04;102002.25;107710;1294;22015;-64
2023/02/07 02:26:20;;;;;;;8.90;5.30;;;;;;;3.90;53.40;102006.80;107745;1294;23177;-61
2023/02/07 02:29:10;;;;;;;9.10;5.50;;;;;;;3.99;52.38;102002.83;107730;1294;22085;-61
2023/02/07 02:32:10;;;;;;;8.40;5.40;;;;;;;3.95;52.11;102004.60;107640;1291;199602;-65
2023/02/07 02:34:58;;;;;;;10.20;5.80;;;;;;;4.01;51.62;102005.36;107825;1291;21996;-61
2023/02/07 02:37:30;;;;;;;10.10;5.80;;;;;;;4.02;51.25;102006.27;107099;1291;1002736;-61
2023/02/07 02:52:44;;;;;;;9.50;5.60;;;;;;;-0.25;80.05;102038.31;107532;1288;547884;-61
2023/02/07 02:55:09;;;;;;;10.80;5.50;;;;;;;2.85;58.22;102024.48;106852;1294;1002592;-61
2023/02/07 02:57:57;;;;;;;9.40;5.00;;;;;;;3.31;55.03;102024.96;107509;1290;21996;-65
2023/02/07 03:00:50;;;;;;;9.60;5.50;;;;;;;3.52;53.46;102020.86;107711;1294;21985;-61
2023/02/07 03:03:43;;;;;;;9.20;5.40;;;;;;;3.79;52.49;102017.45;107710;1294;21991;-61
2023/02/07 03:12:17;;;;;;;9.60;5.50;;;;;;;0.09;75.12;102032.20;107398;1288;547741;-62
2023/02/07 03:14:56;;;;;;;8.90;5.10;;;;;;;3.09;56.10;102018.25;107668;1295;21996;-62
2023/02/07 03:17:29;;;;;;;8.60;5.80;;;;;;;3.43;53.29;102015.42;107384;1296;22009;-64
2023/02/07 03:20:17;;;;;;;9.20;5.10;;;;;;;3.59;52.62;102012.14;107424;1296;24468;-64
2023/02/07 03:22:43;;;;;;;10.40;5.60;;;;;;;3.68;52.09;102009.89;107432;1295;23773;-60
2023/02/07 03:25:10;;;;;;;11.40;5.90;;;;;;;3.73;51.55;102007.14;107330;1290;221564;-61
2023/02/07 03:27:36;;;;;;;9.10;5.90;;;;;;;3.76;51.44;102002.05;107592;1294;21999;-66
2023/02/07 03:37:26;;;;;;;11.90;6.50;;;;;;;-0.01;74.59;102018.61;107375;1286;548337;-62
2023/02/07 03:39:51;;;;;;;10.10;6.50;;;;;;;3.10;55.60;101999.40;107711;1288;21996;-66
2023/02/07 03:42:31;;;;;;;8.10;5.20;;;;;;;3.61;52.69;101993.45;107614;1292;21999;-63
2023/02/07 03:44:57;;;;;;;10.40;5.50;;;;;;;3.88;51.37;101992.30;106978;1292;1002579;-62
2023/02/07 04:34:13;;;;;;;9.90;5.60;;;;;;;-0.68;84.39;102034.89;107373;1288;548417;-65
2023/02/07 04:36:39;;;;;;;9.00;5.30;;;;;;;2.73;60.23;102015.77;107575;1294;22007;-64
2023/02/07 04:39:05;;;;;;;8.60;4.40;;;;;;;3.29;55.26;102014.30;107398;1296;22000;-61
2023/02/07 04:41:31;;;;;;;9.20;5.10;;;;;;;3.54;53.55;102010.52;107559;1292;22176;-65
2023/02/07 04:43:57;;;;;;;10.80;4.80;;;;;;;3.68;52.32;102010.58;106605;1297;1002978;-62
2023/02/07 04:46:24;;;;;;;8.90;4.70;;;;;;;3.82;52.00;102008.90;106438;1295;1003106;-64
2023/02/07 04:48:49;;;;;;;10.10;5.10;;;;;;;3.92;51.57;102010.20;106803;1295;1002697;-65
2023/02/07 04:51:15;;;;;;;9.40;5.60;;;;;;;3.98;51.04;102012.52;106843;1294;1002541;-65
2023/02/07 04:56:29;;;;;;;15.60;5.90;;;;;;;0.99;62.12;102027.10;107306;1288;547867;-61
2023/02/07 04:58:55;;;;;;;9.40;5.30;;;;;;;3.52;52.15;102023.63;106876;1294;1002462;-64
2023/02/07 05:01:21;;;;;;;19.40;8.60;;;;;;;3.74;50.87;102017.11;107331;1296;22035;-61
2023/02/07 05:12:08;;;;;;;23.10;8.60;;;;;;;-0.18;76.32;102051.93;107292;1292;548069;-63
2023/02/07 05:14:37;;;;;;;13.90;5.70;;;;;;;2.91;57.35;102036.37;107413;1292;21996;-63
2023/02/07 05:17:03;;;;;;;15.70;6.40;;;;;;;3.31;54.08;102033.34;107376;1296;22056;-62
2023/02/07 05:19:29;;;;;;;12.80;5.80;;;;;;;3.48;53.24;102033.70;107412;1296;22019;-62
2023/02/07 05:21:55;;;;;;;10.30;6.50;;;;;;;3.56;52.39;102034.38;107383;1296;22187;-63
2023/02/07 05:24:22;;;;;;;11.20;6.80;;;;;;;3.53;50.82;102037.91;107325;1294;200083;-64
2023/02/07 05:26:47;;;;;;;12.60;6.20;;;;;;;3.62;51.51;102045.77;107823;1291;21995;-62
2023/02/07 05:29:13;;;;;;;19.20;8.10;;;;;;;3.67;51.24;102045.27;107653;1291;21966;-65
2023/02/07 05:34:23;;;;;;;21.90;11.30;;;;;;;3.69;49.79;102048.67;107669;1291;21992;-64
2023/02/07 05:36:49;;;;;;;15.90;8.50;;;;;;;3.72;50.12;102054.01;107748;1291;22035;-64
2023/02/07 05:40:59;;;;;;;39.60;15.80;;;;;;;2.86;49.82;102059.09;107848;1283;548227;-61
2023/02/07 05:43:27;;;;;;;32.10;12.50;;;;;;;3.65;49.53;102063.42;108139;1283;23138;-65
2023/02/07 05:45:54;;;;;;;24.60;11.50;;;;;;;3.71;49.54;102060.22;107541;1283;1006340;-64
2023/02/07 05:48:21;;;;;;;12.30;7.10;;;;;;;3.74;49.36;102061.73;107578;1285;1003133;-61
2023/02/07 05:50:47;;;;;;;11.80;6.90;;;;;;;3.83;49.38;102058.77;107416;1285;1002739;-61
2023/02/07 05:53:13;;;;;;;13.70;7.60;;;;;;;4.03;49.03;102053.90;107185;1283;1002996;-61
2023/02/07 05:55:39;;;;;;;9.30;5.90;;;;;;;4.08;48.44;102055.64;108346;1282;22071;-64
2023/02/07 05:58:05;;;;;;;8.20;5.10;;;;;;;4.10;48.13;102058.16;108350;1283;21985;-64
2023/02/07 06:00:33;;;;;;;9.20;5.40;;;;;;;4.11;48.10;102062.57;108303;1283;21979;-63
2023/02/07 06:02:59;;;;;;;9.90;5.80;;;;;;;4.12;47.96;102061.05;108290;1283;21987;-64
2023/02/07 06:05:30;;;;;;;7.70;4.90;;;;;;;4.15;47.82;102061.02;108332;1282;23074;-61
2023/02/07 06:08:00;;;;;;;8.70;5.80;;;;;;;4.16;47.48;102066.73;107580;1282;1002739;-63
2023/02/07 06:10:26;;;;;;;11.80;7.40;;;;;;;4.14;47.65;102063.20;108301;1283;21981;-64
2023/02/07 06:12:53;;;;;;;11.50;6.50;;;;;;;4.13;47.63;102057.27;107550;1283;1002535;-61
2023/02/07 06:15:19;;;;;;;10.10;7.20;;;;;;;3.99;47.51;102059.97;107315;1283;1002809;-61
2023/02/07 06:17:45;;;;;;;10.90;7.10;;;;;;;3.95;47.64;102061.38;107591;1283;1002987;-64
2023/02/07 06:20:12;;;;;;;9.10;5.80;;;;;;;3.94;47.63;102061.55;108239;1281;21983;-64
2023/02/07 06:22:37;;;;;;;11.60;5.70;;;;;;;3.92;47.97;102058.98;107654;1280;1002790;-62
2023/02/07 06:25:10;;;;;;;8.40;5.00;;;;;;;3.93;47.62;102057.64;108362;1283;21993;-61
2023/02/07 06:27:40;;;;;;;7.90;4.80;;;;;;;3.94;47.89;102056.33;108394;1283;21990;-61
2023/02/07 06:30:07;;;;;;;8.40;5.10;;;;;;;3.99;47.98;102056.33;108095;1283;21995;-64
2023/02/07 06:32:33;;;;;;;7.10;4.90;;;;;;;4.02;47.72;102051.23;108357;1283;21999;-64
2023/02/07 06:34:59;;;;;;;9.50;5.10;;;;;;;4.05;47.60;102050.66;108323;1283;22023;-64
2023/02/07 06:37:25;;;;;;;10.20;5.50;;;;;;;3.99;48.06;102052.70;108302;1283;21952;-61
2023/02/07 06:39:51;;;;;;;8.80;5.40;;;;;;;3.91;48.29;102055.65;107633;1283;1002886;-65
2023/02/07 06:42:17;;;;;;;9.70;5.40;;;;;;;3.86;47.94;102055.64;107662;1282;1003257;-65
2023/02/07 06:44:43;;;;;;;7.80;5.30;;;;;;;3.85;47.81;102056.82;107634;1283;1002546;-62
2023/02/07 06:47:10;;;;;;;9.10;5.20;;;;;;;3.83;47.94;102055.34;108323;1283;21987;-62
2023/02/07 06:49:36;;;;;;;9.00;5.20;;;;;;;3.86;48.35;102057.70;108408;1281;23679;-63
2023/02/07 06:52:04;;;;;;;8.90;5.50;;;;;;;3.89;48.18;102055.23;108140;1284;21984;-62
2023/02/07 06:54:30;;;;;;;8.70;4.60;;;;;;;4.06;47.88;102050.52;107440;1283;1002400;-62
2023/02/07 06:56:56;;;;;;;8.60;5.60;;;;;;;4.17;47.31;102046.80;107703;1283;1001840;-62
2023/02/07 06:59:21;;;;;;;8.40;5.50;;;;;;;4.25;47.59;102046.77;107610;1283;1003083;-62
2023/02/07 07:01:48;;;;;;;7.90;4.70;;;;;;;4.27;47.05;102047.39;108324;1283;22008;-64
2023/02/07 07:04:14;;;;;;;7.70;4.70;;;;;;;4.47;46.83;102048.17;108357;1284;21997;-66
2023/02/07 07:06:41;;;;;;;7.00;4.40;;;;;;;4.60;46.17;102045.57;108355;1283;21971;-66
2023/02/07 07:09:06;;;;;;;7.80;4.70;;;;;;;4.66;46.54;102044.04;107652;1283;1002730;-65
2023/02/07 07:11:32;;;;;;;7.20;4.20;;;;;;;4.72;46.52;102046.90;108400;1281;21980;-65
2023/02/07 07:13:59;;;;;;;7.70;4.90;;;;;;;4.79;46.11;102046.27;108476;1283;21979;-65
2023/02/07 07:16:26;;;;;;;12.10;5.00;;;;;;;4.82;46.01;102046.05;108329;1283;21987;-66
2023/02/07 07:18:51;;;;;;;7.30;4.50;;;;;;;4.84;45.92;102049.62;108325;1283;22035;-65
2023/02/07 07:21:17;;;;;;;8.00;4.70;;;;;;;4.69;45.88;102048.52;108258;1283;23380;-66
2023/02/07 07:23:46;;;;;;;8.40;5.00;;;;;;;4.64;46.26;102048.30;108240;1282;23602;-63
2023/02/07 07:26:12;;;;;;;6.30;3.80;;;;;;;4.59;45.72;102045.88;107731;1283;1003085;-65
2023/02/07 07:28:39;;;;;;;8.20;4.70;;;;;;;4.61;46.03;102050.14;108259;1283;21982;-63
2023/02/07 07:31:06;;;;;;;7.60;4.60;;;;;;;4.67;46.37;102052.45;108398;1278;21998;-61
2023/02/07 07:33:32;;;;;;;6.80;4.60;;;;;;;4.72;46.24;102051.41;107694;1283;1002353;-61
2023/02/07 07:35:59;;;;;;;7.00;4.00;;;;;;;4.71;45.70;102047.39;107654;1283;1003165;-65
2023/02/07 07:38:25;;;;;;;7.10;4.40;;;;;;;4.70;45.45;102046.48;108377;1283;21990;-61
2023/02/07 07:40:50;;;;;;;6.70;4.00;;;;;;;4.72;45.84;102050.02;108329;1284;21986;-61
2023/02/07 07:43:17;;;;;;;7.10;4.60;;;;;;;4.77;46.02;102050.57;108352;1283;22020;-61
2023/02/07 07:45:43;;;;;;;7.30;4.50;;;;;;;4.82;45.97;102051.62;107530;1284;1002442;-64
2023/02/07 07:48:09;;;;;;;6.80;4.00;;;;;;;4.84;46.09;102053.45;108311;1284;21982;-61
2023/02/07 07:50:35;;;;;;;7.90;4.70;;;;;;;4.84;45.89;102055.88;107606;1283;1002826;-64
2023/02/07 07:53:01;;;;;;;7.30;4.20;;;;;;;4.89;45.78;102053.96;107625;1283;1003163;-64
2023/02/07 07:55:27;;;;;;;8.70;5.50;;;;;;;4.87;45.79;102053.70;108355;1283;21988;-65
2023/02/07 07:57:53;;;;;;;9.90;5.80;;;;;;;4.89;45.90;102055.88;108340;1283;22169;-61
2023/02/07 08:00:20;;;;;;;7.00;4.20;;;;;;;4.92;45.98;102058.60;108384;1283;23046;-65
2023/02/07 08:02:45;;;;;;;7.20;4.40;;;;;;;4.97;46.34;102060.73;108258;1284;21980;-61
2023/02/07 08:05:11;;;;;;;6.70;3.90;;;;;;;5.03;46.35;102062.17;107544;1284;1003192;-64
2023/02/07 08:07:37;;;;;;;6.70;4.00;;;;;;;5.12;45.83;102062.82;107523;1284;1002549;-65
2023/02/07 08:10:04;;;;;;;7.30;4.30;;;;;;;5.19;46.28;102063.61;108293;1284;21979;-61
2023/02/07 08:12:31;;;;;;;7.30;4.10;;;;;;;5.22;45.22;102063.55;108295;1284;21996;-62
2023/02/07 08:14:57;;;;;;;7.90;4.90;;;;;;;5.21;45.42;102068.75;107527;1284;1002497;-65
2023/02/07 08:17:23;;;;;;;7.10;4.20;;;;;;;5.25;45.82;102065.73;108415;1283;21981;-66
2023/02/07 08:19:49;;;;;;;6.10;3.90;;;;;;;5.31;45.68;102060.89;108286;1283;21988;-65
2023/02/07 08:22:15;;;;;;;6.80;4.10;;;;;;;5.34;45.51;102057.02;108438;1280;21999;-63
2023/02/07 08:24:41;;;;;;;7.80;4.70;;;;;;;5.36;45.51;102053.95;107696;1283;1002693;-62
2023/02/07 08:27:08;;;;;;;8.70;5.20;;;;;;;5.52;45.04;102059.73;107662;1283;1002616;-64
2023/02/07 08:29:34;;;;;;;7.20;4.00;;;;;;;5.41;44.85;102057.96;108411;1283;21984;-64
2023/02/07 08:32:00;;;;;;;7.70;4.30;;;;;;;5.37;45.11;102057.81;108453;1283;21982;-62
2023/02/07 08:34:27;;;;;;;6.40;3.90;;;;;;;5.38;45.50;102056.98;107654;1283;1003053;-62
2023/02/07 08:36:53;;;;;;;6.80;4.40;;;;;;;5.45;45.37;102062.13;107607;1283;1002811;-65
2023/02/07 08:39:19;;;;;;;9.00;4.20;;;;;;;5.48;45.13;102061.17;107609;1283;1002524;-66
2023/02/07 08:41:46;;;;;;;5.50;3.60;;;;;;;5.52;45.60;102057.84;108385;1283;21986;-66
2023/02/07 08:44:12;;;;;;;9.30;5.20;;;;;;;5.56;45.48;102057.09;108393;1283;22157;-66
2023/02/07 08:46:38;;;;;;;7.90;4.70;;;;;;;5.57;44.67;102058.19;108399;1270;21977;-66
2023/02/07 08:49:04;;;;;;;6.10;3.90;;;;;;;5.54;44.33;102060.68;107673;1283;1002512;-62
2023/02/07 08:51:30;;;;;;;8.80;4.50;;;;;;;5.53;44.28;102056.46;107613;1283;1002283;-66
2023/02/07 08:53:56;;;;;;;7.00;4.60;;;;;;;5.52;44.25;102053.99;107669;1280;1002380;-62
2023/02/07 08:56:22;;;;;;;7.00;4.30;;;;;;;5.53;44.66;102054.20;108186;1283;22019;-65
2023/02/07 08:58:48;;;;;;;7.80;4.40;;;;;;;5.56;44.52;102048.21;107554;1283;1002275;-66
2023/02/07 09:01:14;;;;;;;8.00;5.30;;;;;;;5.56;44.49;102050.30;108339;1283;22089;-63
2023/02/07 09:03:40;;;;;;;8.00;4.70;;;;;;;5.58;44.58;102046.17;108361;1283;22049;-63
2023/02/07 09:06:05;;;;;;;7.30;4.30;;;;;;;5.66;45.22;102036.71;108354;1280;22033;-67
2023/02/07 09:08:31;;;;;;;7.30;4.70;;;;;;;5.80;45.35;102038.04;108347;1283;21980;-66
2023/02/07 09:10:59;;;;;;;10.70;4.80;;;;;;;5.90;45.13;102031.08;108167;1283;22210;-67
2023/02/07 09:13:26;;;;;;;12.70;6.10;;;;;;;5.98;44.85;102026.95;107673;1282;1002929;-64
2023/02/07 09:15:57;;;;;;;12.00;7.80;;;;;;;6.02;44.34;102026.95;108510;1283;23756;-62
2023/02/07 09:18:23;;;;;;;38.10;17.20;;;;;;;6.06;44.57;102025.54;108307;1283;22005;-64
2023/02/07 09:20:52;;;;;;;13.20;6.50;;;;;;;6.25;44.80;102027.20;108255;1283;23692;-62
2023/02/07 09:23:18;;;;;;;9.70;5.10;;;;;;;6.60;44.15;102023.73;108501;1283;21987;-61
2023/02/07 09:25:46;;;;;;;8.20;4.80;;;;;;;6.86;43.77;102021.70;108544;1280;21993;-65
2023/02/07 09:28:13;;;;;;;19.30;8.30;;;;;;;7.01;43.11;102013.95;108376;1283;22037;-63
2023/02/07 09:30:40;;;;;;;19.60;8.50;;;;;;;7.10;43.40;102013.30;107663;1283;1002158;-67
2023/02/07 09:33:06;;;;;;;13.10;8.30;;;;;;;7.09;43.23;102012.77;108452;1283;23810;-62
2023/02/07 09:35:37;;;;;;;13.90;7.40;;;;;;;7.01;44.07;102014.11;108406;1283;21982;-67
2023/02/07 09:38:03;;;;;;;12.50;5.30;;;;;;;7.07;44.06;102013.05;108386;1283;22099;-67
2023/02/07 09:40:31;;;;;;;12.40;6.90;;;;;;;7.07;43.46;102010.45;108355;1281;21987;-63
2023/02/07 09:43:16;;;;;;;11.80;5.70;;;;;;;7.03;43.19;102013.64;108216;1283;21985;-63
2023/02/07 09:45:44;;;;;;;8.20;4.50;;;;;;;6.93;42.86;102006.02;107475;1283;1002562;-66
2023/02/07 09:48:20;;;;;;;11.50;5.60;;;;;;;6.90;43.44;102006.47;108267;1283;21980;-64
2023/02/07 09:50:55;;;;;;;10.60;4.50;;;;;;;7.01;44.04;102005.21;108434;1280;22001;-67
2023/02/07 09:53:44;;;;;;;19.80;9.80;;;;;;;7.19;44.20;102003.26;108412;1283;22006;-64
2023/02/07 09:56:10;;;;;;;9.70;4.70;;;;;;;7.35;44.45;101998.98;107497;1283;1002608;-66
2023/02/07 09:58:46;;;;;;;7.70;4.40;;;;;;;7.39;43.37;102001.55;108342;1283;21983;-66
2023/02/07 10:01:36;;;;;;;8.10;4.60;;;;;;;7.29;42.82;102002.14;108416;1283;23189;-65
2023/02/07 10:04:32;;;;;;;7.70;4.40;;;;;;;7.14;42.94;102002.61;107605;1283;1002630;-65
2023/02/07 10:06:58;;;;;;;8.10;4.70;;;;;;;7.07;42.67;102005.57;108204;1283;21980;-62
2023/02/07 10:09:30;;;;;;;7.00;4.70;;;;;;;7.31;42.63;101999.73;108259;1283;21992;-62
2023/02/07 10:12:26;;;;;;;8.00;4.80;;;;;;;7.29;42.65;102001.98;107714;1283;1003509;-62
2023/02/07 10:15:21;;;;;;;7.40;4.50;;;;;;;7.22;42.53;102004.77;108299;1283;21983;-63
2023/02/07 10:17:47;;;;;;;6.70;3.90;;;;;;;7.08;41.27;102002.09;107669;1277;1002182;-62
2023/02/07 10:20:43;;;;;;;7.50;4.70;;;;;;;6.97;41.47;101998.29;108439;1283;23760;-65
2023/02/07 10:23:26;;;;;;;6.70;4.00;;;;;;;6.96;42.66;101997.76;108438;1283;22017;-62
2023/02/07 10:26:08;;;;;;;6.60;4.30;;;;;;;6.95;42.46;101989.88;108449;1283;22015;-63
2023/02/07 10:28:52;;;;;;;7.20;5.00;;;;;;;6.91;42.07;101990.44;108437;1283;21982;-63
2023/02/07 10:31:18;;;;;;;8.80;5.10;;;;;;;6.93;42.83;101994.35;107641;1283;1002630;-66
2023/02/07 10:33:49;;;;;;;7.20;4.20;;;;;;;6.96;42.35;101995.48;108172;1283;21986;-66
2023/02/07 10:36:15;;;;;;;7.20;4.80;;;;;;;6.93;42.30;101997.13;107724;1283;1002417;-66
2023/02/07 10:38:45;;;;;;;7.50;5.00;;;;;;;7.05;42.44;101995.56;108386;1283;21978;-62
2023/02/07 10:41:13;;;;;;;7.50;4.90;;;;;;;7.15;42.67;101988.14;108491;1283;23071;-65
2023/02/07 10:43:39;;;;;;;7.20;4.90;;;;;;;7.27;42.47;101982.70;108433;1283;21984;-65
2023/02/07 10:46:06;;;;;;;7.70;5.00;;;;;;;7.34;42.42;101980.80;108254;1283;21982;-62
2023/02/07 10:48:32;;;;;;;9.20;5.70;;;;;;;7.36;41.83;101978.40;108253;1283;21991;-61
2023/02/07 10:51:34;;;;;;;10.90;5.70;;;;;;;7.21;41.91;101984.10;108395;1283;22033;-66
2023/02/07 10:54:07;;;;;;;10.40;5.80;;;;;;;7.13;42.58;101988.95;107323;1283;1002120;-65
2023/02/07 10:56:45;;;;;;;10.10;6.30;;;;;;;7.12;42.07;101982.49;108431;1281;21982;-61
2023/02/07 10:59:32;;;;;;;9.50;5.80;;;;;;;7.07;42.18;101981.98;108458;1283;21982;-65
2023/02/07 11:01:58;;;;;;;8.10;4.70;;;;;;;7.07;42.44;101979.02;108424;1283;21977;-62
2023/02/07 11:04:35;;;;;;;7.70;4.90;;;;;;;6.98;41.50;101981.06;107655;1283;1003201;-66
2023/02/07 11:07:03;;;;;;;7.00;4.40;;;;;;;6.97;42.14;101982.96;108455;1283;21982;-67
2023/02/07 11:09:29;;;;;;;7.70;4.80;;;;;;;7.06;42.68;101980.90;108444;1283;23075;-66
2023/02/07 11:11:55;;;;;;;7.20;4.70;;;;;;;7.18;42.95;101978.63;107687;1283;1003219;-62
2023/02/07 11:14:27;;;;;;;7.40;4.40;;;;;;;7.28;43.38;101972.45;108386;1283;22444;-67
2023/02/07 11:16:57;;;;;;;7.40;4.40;;;;;;;7.39;43.08;101967.31;108412;1283;22037;-62
2023/02/07 11:19:25;;;;;;;7.40;4.20;;;;;;;7.39;42.46;101962.06;107696;1283;1002423;-66
2023/02/07 11:22:16;;;;;;;7.70;4.70;;;;;;;7.34;41.98;101959.66;108473;1283;21986;-62
2023/02/07 11:24:42;;;;;;;8.80;5.10;;;;;;;7.23;41.58;101962.88;108162;1272;21983;-65
2023/02/07 11:27:14;;;;;;;7.80;4.80;;;;;;;7.32;41.45;101960.31;108441;1283;21982;-62
2023/02/07 11:29:49;;;;;;;7.60;4.00;;;;;;;7.34;41.58;101957.23;107674;1283;1002548;-62
2023/02/07 11:32:16;;;;;;;7.20;4.90;;;;;;;7.32;41.69;101958.58;108451;1283;21976;-66
2023/02/07 11:34:48;;;;;;;6.80;4.10;;;;;;;7.28;41.62;101967.02;108479;1283;21985;-67
2023/02/07 11:37:27;;;;;;;6.60;4.50;;;;;;;7.23;41.37;101965.86;108449;1283;22014;-65
2023/02/07 11:40:14;;;;;;;9.50;5.60;;;;;;;7.23;41.51;101961.30;108414;1283;21982;-65
2023/02/07 11:42:40;;;;;;;8.10;5.00;;;;;;;7.24;41.57;101963.24;108248;1270;23764;-66
2023/02/07 11:45:13;;;;;;;8.20;5.30;;;;;;;7.21;41.39;101966.66;108443;1283;21978;-65
2023/02/07 11:47:41;;;;;;;8.90;5.50;;;;;;;7.02;41.55;101969.64;108449;1283;21989;-65
2023/02/07 11:50:07;;;;;;;8.80;5.50;;;;;;;6.90;41.54;101967.04;108477;1283;21987;-62
2023/02/07 11:52:33;;;;;;;8.50;5.30;;;;;;;6.86;41.83;101970.05;108436;1283;22016;-65
2023/02/07 11:55:00;;;;;;;10.20;5.10;;;;;;;6.83;42.17;101968.92;108295;1281;21980;-62
2023/02/07 11:57:29;;;;;;;8.40;5.90;;;;;;;6.79;42.16;101966.39;108253;1277;21984;-62
2023/02/07 11:59:58;;;;;;;7.00;5.00;;;;;;;6.75;41.91;101965.40;108476;1283;21987;-62
2023/02/07 12:02:24;;;;;;;9.70;5.80;;;;;;;6.70;42.38;101959.84;108454;1283;22085;-66
2023/02/07 12:04:51;;;;;;;7.40;4.80;;;;;;;6.73;42.68;101960.64;108468;1283;21958;-62
2023/02/07 12:07:31;;;;;;;8.00;5.20;;;;;;;6.79;42.99;101965.50;108415;1283;21975;-63
2023/02/07 12:10:03;;;;;;;9.20;5.70;;;;;;;6.83;42.85;101965.81;108210;1283;21977;-66
2023/02/07 12:12:52;;;;;;;9.40;6.10;;;;;;;6.86;42.55;101964.66;108247;1283;21991;-67
2023/02/07 12:15:22;;;;;;;9.20;5.70;;;;;;;6.82;42.02;101965.58;108507;1283;21990;-66
2023/02/07 12:18:00;;;;;;;8.20;5.80;;;;;;;6.78;42.31;101966.70;107700;1283;1003205;-62
2023/02/07 12:21:08;;;;;;;12.60;7.80;;;;;;;6.76;42.05;101963.48;107707;1283;1002550;-65
2023/02/07 12:24:01;;;;;;;10.60;6.90;;;;;;;6.75;42.03;101961.75;108307;1283;21975;-67
2023/02/07 12:26:29;;;;;;;9.90;5.60;;;;;;;6.85;42.00;101958.86;108429;1283;21986;-66
2023/02/07 12:29:09;;;;;;;11.40;6.50;;;;;;;7.06;42.70;101951.25;107659;1283;1002927;-62
2023/02/07 12:32:01;;;;;;;8.00;5.40;;;;;;;7.23;42.47;101947.33;108410;1283;21975;-62
2023/02/07 12:34:30;;;;;;;11.60;6.70;;;;;;;7.32;42.54;101948.60;108417;1283;21981;-67
2023/02/07 12:37:04;;;;;;;11.70;6.70;;;;;;;7.34;42.15;101954.25;108416;1283;21983;-66
2023/02/07 12:40:16;;;;;;;9.50;5.70;;;;;;;7.33;42.17;101956.33;108188;1283;21974;-62
2023/02/07 12:42:43;;;;;;;9.00;5.60;;;;;;;7.38;42.83;101954.72;107459;1283;1002322;-62
2023/02/07 12:45:17;;;;;;;10.20;6.60;;;;;;;7.42;42.59;101952.90;108428;1283;21984;-66
2023/02/07 12:47:48;;;;;;;10.50;6.70;;;;;;;7.36;41.72;101953.09;108271;1283;21988;-62
2023/02/07 12:50:40;;;;;;;9.80;6.00;;;;;;;7.27;41.73;101953.73;108441;1283;21985;-66
2023/02/07 12:53:19;;;;;;;12.60;7.50;;;;;;;7.15;41.27;101961.77;108269;1283;22067;-63
2023/02/07 12:56:01;;;;;;;11.10;6.00;;;;;;;7.03;41.53;101966.36;108435;1283;21993;-62
2023/02/07 12:58:37;;;;;;;10.80;6.80;;;;;;;6.93;41.31;101972.00;107495;1283;1003129;-66
2023/02/07 13:01:17;;;;;;;11.30;6.70;;;;;;;6.87;41.59;101964.68;108446;1283;23064;-62
2023/02/07 13:03:56;;;;;;;11.50;6.00;;;;;;;6.85;41.86;101966.20;108436;1283;21982;-62
2023/02/07 13:06:25;;;;;;;10.20;5.40;;;;;;;6.89;42.09;101970.33;108408;1283;21979;-62
2023/02/07 13:08:50;;;;;;;9.40;5.70;;;;;;;6.94;42.10;101966.97;108396;1283;21990;-62
2023/02/07 13:11:40;;;;;;;8.80;5.70;;;;;;;6.97;41.75;101969.14;108393;1283;21980;-66
2023/02/07 13:14:34;;;;;;;8.30;5.10;;;;;;;6.94;42.06;101970.83;108399;1283;23621;-62
2023/02/07 13:17:21;;;;;;;7.90;4.60;;;;;;;7.00;42.50;101977.25;108428;1283;21993;-66
2023/02/07 13:19:55;;;;;;;9.70;5.50;;;;;;;7.01;42.14;101977.63;108430;1283;21990;-66
2023/02/07 13:22:34;;;;;;;10.50;5.00;;;;;;;6.95;41.55;101972.92;107499;1283;1003251;-67
2023/02/07 13:25:01;;;;;;;13.10;7.10;;;;;;;6.98;41.81;101973.35;107676;1283;1002941;-66
2023/02/07 13:27:27;;;;;;;10.10;5.80;;;;;;;7.04;41.99;101972.66;108162;1283;22038;-66
2023/02/07 13:29:53;;;;;;;9.20;5.50;;;;;;;7.06;41.76;101974.12;108452;1283;21974;-67
2023/02/07 13:32:24;;;;;;;9.70;6.20;;;;;;;7.05;41.51;101976.35;107468;1283;1002263;-66
2023/02/07 13:34:57;;;;;;;10.90;5.80;;;;;;;7.00;42.04;101977.80;108383;1280;23904;-66
2023/02/07 13:37:32;;;;;;;27.50;16.60;;;;;;;7.05;41.98;101979.32;108402;1283;23446;-66
2023/02/07 13:40:03;;;;;;;58.30;34.10;;;;;;;7.03;42.49;101982.41;107432;1283;1003086;-65
2023/02/07 13:42:49;;;;;;;38.30;23.20;;;;;;;7.04;42.63;101979.98;108329;1283;23473;-63
2023/02/07 13:45:15;;;;;;;15.80;10.00;;;;;;;7.04;42.72;101982.61;108196;1283;21980;-62
2023/02/07 13:48:17;;;;;;;12.80;7.20;;;;;;;7.05;42.25;101982.10;108367;1283;21980;-67
2023/02/07 13:50:57;;;;;;;10.80;6.60;;;;;;;7.07;42.29;101980.77;107763;1291;21983;-63
2023/02/07 13:53:27;;;;;;;14.80;6.20;;;;;;;7.10;42.40;101982.42;108193;1283;21984;-66
2023/02/07 13:55:55;;;;;;;11.50;6.90;;;;;;;7.16;42.43;101980.67;107745;1283;1002682;-67
2023/02/07 14:01:19;;;;;;;11.80;6.30;;;;;;;7.25;43.24;101986.49;108311;1283;21985;-67
2023/02/07 14:04:08;;;;;;;14.80;7.40;;;;;;;7.26;42.90;101989.34;108385;1283;22042;-67
2023/02/07 14:06:36;;;;;;;12.60;8.00;;;;;;;7.17;43.11;101993.27;108339;1283;21987;-62
2023/02/07 14:09:17;;;;;;;11.60;6.10;;;;;;;7.08;43.09;101994.07;107665;1281;1002455;-63
2023/02/07 14:11:46;;;;;;;14.40;7.20;;;;;;;6.98;43.01;101995.88;108334;1283;21991;-63
2023/02/07 14:14:26;;;;;;;13.90;9.40;;;;;;;6.91;43.08;102001.42;108126;1283;21978;-67
2023/02/07 14:16:52;;;;;;;14.90;11.50;;;;;;;6.88;43.25;102004.64;108248;1283;23763;-63
2023/02/07 14:19:44;;;;;;;11.20;8.90;;;;;;;6.79;42.03;102014.01;108389;1283;22018;-68
2023/02/07 14:22:16;;;;;;;13.80;8.40;;;;;;;6.53;41.48;102012.89;108379;1283;21982;-68
2023/02/07 14:24:57;;;;;;;13.50;8.40;;;;;;;6.35;41.90;102019.13;108256;1283;25445;-64
2023/02/07 14:27:29;;;;;;;11.30;7.10;;;;;;;6.37;42.80;102022.35;107554;1283;1006479;-63
2023/02/07 14:29:56;;;;;;;19.50;9.00;;;;;;;6.19;43.39;102020.20;107728;1283;1002756;-62
2023/02/07 14:32:51;;;;;;;15.00;6.90;;;;;;;6.07;43.98;102023.11;108333;1283;21985;-63
2023/02/07 14:35:20;;;;;;;12.80;7.10;;;;;;;6.03;44.30;102026.65;108188;1283;21999;-63
2023/02/07 14:38:07;;;;;;;10.40;6.40;;;;;;;6.23;43.72;102027.63;108423;1283;21999;-67
2023/02/07 14:40:42;;;;;;;19.50;7.50;;;;;;;6.32;43.69;102032.11;108343;1283;21974;-68
2023/02/07 14:43:11;;;;;;;10.50;5.60;;;;;;;6.31;43.29;102039.40;108322;1283;23321;-68
2023/02/07 14:45:58;;;;;;;11.80;6.80;;;;;;;6.24;43.44;102037.61;107590;1283;1006094;-63
2023/02/07 14:48:44;;;;;;;13.00;6.60;;;;;;;6.19;43.83;102037.81;108332;1283;22026;-67